Time;durP1;ratioP1;P1;durP2;ratioP2;P2;SDS_P1;SDS_P2;PMS_P1;PMS_P2;Temp;Humidity;BMP_temperature;BMP_pressure;BME280_temperature;BME280_humidity;BME280_pressure;Samples;Min_cycle;Max_cycle;Signal;HPM_P1;HPM_P2
2023/12/24 00:01:56;;;;;;;1999.90;999.90;;;;;;;;;;5067586;28;20201;-78
2023/12/24 00:04:23;;;;;;;1999.90;999.90;;;;;;;;;;5066892;28;20198;-76
2023/12/24 00:06:50;;;;;;;1999.90;999.90;;;;;;;;;;5048922;28;20230;-78
2023/12/24 00:09:19;;;;;;;1999.90;999.90;;;;;;;;;;5067093;28;20198;-75
2023/12/24 00:11:46;;;;;;;1999.90;999.90;;;;;;;;;;5066829;28;20197;-78
2023/12/24 00:14:14;;;;;;;1999.90;999.90;;;;;;;;;;5048819;28;20621;-78
2023/12/24 00:16:42;;;;;;;1999.90;999.90;;;;;;;;;;5067137;28;20191;-76
2023/12/24 00:19:09;;;;;;;1999.90;999.90;;;;;;;;;;5049180;28;20512;-77
2023/12/24 00:21:36;;;;;;;1999.90;999.90;;;;;;;;;;5066945;28;20228;-77
2023/12/24 00:24:04;;;;;;;1999.90;999.90;;;;;;;;;;5031773;28;20505;-78
2023/12/24 00:26:33;;;;;;;1999.90;999.90;;;;;;;;;;5048297;28;20218;-79
2023/12/24 00:29:00;;;;;;;1999.90;999.90;;;;;;;;;;5048348;28;20206;-79
2023/12/24 00:31:28;;;;;;;1999.90;999.90;;;;;;;;;;5066915;28;20209;-75
2023/12/24 00:33:55;;;;;;;1999.90;999.90;;;;;;;;;;5066748;28;20489;-77
2023/12/24 00:36:23;;;;;;;1999.90;999.90;;;;;;;;;;5048497;28;20294;-77
2023/12/24 00:38:50;;;;;;;1999.90;999.90;;;;;;;;;;5066858;28;20556;-82
2023/12/24 00:41:17;;;;;;;1999.90;999.90;;;;;;;;;;5066230;28;20213;-76
2023/12/24 00:43:46;;;;;;;1999.90;999.90;;;;;;;;;;5067048;28;20202;-74
2023/12/24 00:46:15;;;;;;;1999.90;999.90;;;;;;;;;;5066291;28;20222;-76
2023/12/24 00:48:42;;;;;;;1999.90;999.90;;;;;;;;;;5067479;28;20262;-75
2023/12/24 00:51:10;;;;;;;1999.90;999.90;;;;;;;;;;5048224;28;20671;-76
2023/12/24 00:53:37;;;;;;;1999.90;999.90;;;;;;;;;;5067077;28;20212;-77
2023/12/24 00:56:05;;;;;;;1999.90;999.90;;;;;;;;;;5066677;28;20536;-75
2023/12/24 00:58:32;;;;;;;1999.90;999.90;;;;;;;;;;5066416;28;20198;-77
2023/12/24 01:01:01;;;;;;;1999.90;999.90;;;;;;;;;;5066416;28;20212;-78
2023/12/24 01:03:28;;;;;;;1999.90;999.90;;;;;;;;;;5065252;28;20191;-77
2023/12/24 01:05:56;;;;;;;1999.90;999.90;;;;;;;;;;5066579;28;20218;-78
2023/12/24 01:08:23;;;;;;;1999.90;999.90;;;;;;;;;;5065238;28;20195;-77
2023/12/24 01:10:50;;;;;;;1999.90;999.90;;;;;;;;;;5048011;28;20724;-75
2023/12/24 01:13:19;;;;;;;1999.90;999.90;;;;;;;;;;5065764;28;20197;-75
2023/12/24 01:15:47;;;;;;;1999.90;999.90;;;;;;;;;;5065644;28;20313;-74
2023/12/24 01:18:16;;;;;;;1999.90;999.90;;;;;;;;;;5066378;28;20228;-74
2023/12/24 01:20:43;;;;;;;1999.90;999.90;;;;;;;;;;5064676;28;20289;-72
2023/12/24 01:23:10;;;;;;;1999.90;999.90;;;;;;;;;;5066933;28;20226;-77
2023/12/24 01:25:38;;;;;;;1999.90;999.90;;;;;;;;;;5032985;28;20191;-73
2023/12/24 01:28:05;;;;;;;1999.90;999.90;;;;;;;;;;5062944;28;21068;-74
2023/12/24 01:30:32;;;;;;;1999.90;999.90;;;;;;;;;;5064880;28;20201;-73
2023/12/24 01:33:00;;;;;;;1999.90;999.90;;;;;;;;;;5047882;28;20203;-74
2023/12/24 01:35:28;;;;;;;1999.90;999.90;;;;;;;;;;5065049;28;20198;-73
2023/12/24 01:37:56;;;;;;;1999.90;999.90;;;;;;;;;;5047269;28;20211;-75
2023/12/24 01:40:23;;;;;;;1999.90;999.90;;;;;;;;;;5065764;28;20191;-78
2023/12/24 01:42:51;;;;;;;1999.90;999.90;;;;;;;;;;5065223;28;20195;-76
2023/12/24 01:45:18;;;;;;;1999.90;999.90;;;;;;;;;;5065560;28;20191;-80
2023/12/24 01:47:46;;;;;;;1999.90;999.90;;;;;;;;;;5059125;28;20582;-79
2023/12/24 01:50:13;;;;;;;1999.90;999.90;;;;;;;;;;5047621;28;20197;-78
2023/12/24 01:52:43;;;;;;;1999.90;999.90;;;;;;;;;;5064938;28;20203;-78
2023/12/24 01:55:10;;;;;;;1999.90;999.90;;;;;;;;;;5066578;28;20197;-77
2023/12/24 01:57:38;;;;;;;1999.90;999.90;;;;;;;;;;5066685;28;20217;-75
2023/12/24 02:00:06;;;;;;;1999.90;999.90;;;;;;;;;;5049520;28;20201;-80
2023/12/24 02:02:33;;;;;;;1999.90;999.90;;;;;;;;;;5068242;28;20210;-77
2023/12/24 02:05:01;;;;;;;1999.90;999.90;;;;;;;;;;5065750;28;20201;-81
2023/12/24 02:07:29;;;;;;;1999.90;999.90;;;;;;;;;;5066506;28;20279;-79
2023/12/24 02:09:59;;;;;;;1999.90;999.90;;;;;;;;;;5067434;28;20857;-80
2023/12/24 02:12:26;;;;;;;1999.90;999.90;;;;;;;;;;5066104;28;20194;-75
2023/12/24 02:14:53;;;;;;;1999.90;999.90;;;;;;;;;;5066239;28;20233;-77
2023/12/24 02:17:22;;;;;;;1999.90;999.90;;;;;;;;;;5065363;28;20199;-80
2023/12/24 02:19:49;;;;;;;1999.90;999.90;;;;;;;;;;5065673;28;20212;-75
2023/12/24 02:22:18;;;;;;;1999.90;999.90;;;;;;;;;;5068819;28;20199;-77
2023/12/24 02:24:45;;;;;;;1999.90;999.90;;;;;;;;;;5072481;28;20204;-76
2023/12/24 02:27:23;;;;;;;1999.90;999.90;;;;;;;;;;5065351;28;20228;-76
2023/12/24 02:29:52;;;;;;;1999.90;999.90;;;;;;;;;;5064474;28;20193;-80
2023/12/24 02:32:20;;;;;;;1999.90;999.90;;;;;;;;;;5035820;28;20664;-78
2023/12/24 02:34:49;;;;;;;1999.90;999.90;;;;;;;;;;5063549;28;20666;-76
2023/12/24 02:37:18;;;;;;;1999.90;999.90;;;;;;;;;;5065363;28;20270;-78
2023/12/24 02:39:45;;;;;;;1999.90;999.90;;;;;;;;;;5064426;28;20199;-79
2023/12/24 02:42:13;;;;;;;1999.90;999.90;;;;;;;;;;5065616;28;20201;-80
2023/12/24 02:44:40;;;;;;;1999.90;999.90;;;;;;;;;;5065327;28;20212;-76
2023/12/24 02:47:08;;;;;;;1999.90;999.90;;;;;;;;;;5065549;28;20571;-75
2023/12/24 02:49:35;;;;;;;1999.90;999.90;;;;;;;;;;5046673;28;20574;-79
2023/12/24 02:52:04;;;;;;;1999.90;999.90;;;;;;;;;;5064701;28;20550;-77
2023/12/24 02:54:32;;;;;;;1999.90;999.90;;;;;;;;;;5047009;28;20259;-75
2023/12/24 02:57:00;;;;;;;1999.90;999.90;;;;;;;;;;5064999;28;20189;-77
2023/12/24 02:59:28;;;;;;;1999.90;999.90;;;;;;;;;;5065223;28;20197;-76
2023/12/24 03:01:55;;;;;;;1999.90;999.90;;;;;;;;;;5064343;28;20200;-75
2023/12/24 03:04:22;;;;;;;1999.90;999.90;;;;;;;;;;5065155;28;20194;-75
2023/12/24 03:06:50;;;;;;;1999.90;999.90;;;;;;;;;;5068505;28;20213;-77
2023/12/24 03:09:17;;;;;;;1999.90;999.90;;;;;;;;;;5068096;28;20196;-77
2023/12/24 03:11:46;;;;;;;1999.90;999.90;;;;;;;;;;5068583;28;20555;-75
2023/12/24 03:14:13;;;;;;;1999.90;999.90;;;;;;;;;;5067508;28;20642;-76
2023/12/24 03:16:41;;;;;;;1999.90;999.90;;;;;;;;;;5068045;28;20189;-76
2023/12/24 03:19:08;;;;;;;1999.90;999.90;;;;;;;;;;5066913;28;20547;-77
2023/12/24 03:21:35;;;;;;;1999.90;999.90;;;;;;;;;;5049590;28;20206;-77
2023/12/24 03:24:03;;;;;;;1999.90;999.90;;;;;;;;;;5050131;28;20206;-75
2023/12/24 03:26:30;;;;;;;1999.90;999.90;;;;;;;;;;5067611;28;20224;-76
2023/12/24 03:29:01;;;;;;;1999.90;999.90;;;;;;;;;;5068176;28;20200;-76
2023/12/24 03:31:29;;;;;;;1999.90;999.90;;;;;;;;;;5067381;28;20184;-77
2023/12/24 03:33:56;;;;;;;1999.90;999.90;;;;;;;;;;5067047;28;20239;-77
2023/12/24 03:36:23;;;;;;;1999.90;999.90;;;;;;;;;;5067642;28;20535;-80
2023/12/24 03:38:51;;;;;;;1999.90;999.90;;;;;;;;;;5067746;28;20195;-76
2023/12/24 03:41:18;;;;;;;1999.90;999.90;;;;;;;;;;5050647;28;20212;-79
2023/12/24 03:43:45;;;;;;;1999.90;999.90;;;;;;;;;;5067119;28;20184;-77
2023/12/24 03:46:18;;;;;;;1999.90;999.90;;;;;;;;;;5033289;28;20202;-76
2023/12/24 03:48:45;;;;;;;1999.90;999.90;;;;;;;;;;5048095;28;20203;-79
2023/12/24 03:51:14;;;;;;;1999.90;999.90;;;;;;;;;;5048750;28;20196;-76
2023/12/24 03:53:43;;;;;;;1999.90;999.90;;;;;;;;;;5066839;28;20204;-77
2023/12/24 03:56:11;;;;;;;1999.90;999.90;;;;;;;;;;5067283;28;20541;-85
2023/12/24 03:58:39;;;;;;;1999.90;999.90;;;;;;;;;;5067932;28;20558;-78
2023/12/24 04:01:08;;;;;;;1999.90;999.90;;;;;;;;;;5067694;28;20201;-88
2023/12/24 04:03:37;;;;;;;1999.90;999.90;;;;;;;;;;5050698;28;20204;-79
2023/12/24 04:06:10;;;;;;;1999.90;999.90;;;;;;;;;;5033471;28;20189;-76
2023/12/24 04:08:38;;;;;;;1999.90;999.90;;;;;;;;;;5068183;28;20213;-79
2023/12/24 04:11:12;;;;;;;1999.90;999.90;;;;;;;;;;5067877;28;20251;-79
2023/12/24 04:13:39;;;;;;;1999.90;999.90;;;;;;;;;;5066214;28;20547;-75
2023/12/24 04:16:07;;;;;;;1999.90;999.90;;;;;;;;;;5068606;28;20193;-82
2023/12/24 04:18:34;;;;;;;1999.90;999.90;;;;;;;;;;5032244;28;20219;-76
2023/12/24 04:21:03;;;;;;;1999.90;999.90;;;;;;;;;;5049364;28;20204;-83
2023/12/24 04:23:30;;;;;;;1999.90;999.90;;;;;;;;;;5066797;28;20189;-81
2023/12/24 04:25:58;;;;;;;1999.90;999.90;;;;;;;;;;5050671;28;20188;-77
2023/12/24 04:28:26;;;;;;;1999.90;999.90;;;;;;;;;;5068091;28;20385;-80
2023/12/24 04:30:53;;;;;;;1999.90;999.90;;;;;;;;;;5047886;28;20195;-78
2023/12/24 04:33:20;;;;;;;1999.90;999.90;;;;;;;;;;5049122;28;20201;-79
2023/12/24 04:35:48;;;;;;;1999.90;999.90;;;;;;;;;;5049073;28;20278;-78
2023/12/24 04:38:17;;;;;;;1999.90;999.90;;;;;;;;;;5068000;28;21024;-80
2023/12/24 04:40:44;;;;;;;1999.90;999.90;;;;;;;;;;5068237;28;20193;-77
2023/12/24 04:43:11;;;;;;;1999.90;999.90;;;;;;;;;;5067522;28;20271;-78
2023/12/24 04:45:39;;;;;;;1999.90;999.90;;;;;;;;;;5067471;28;20200;-81
2023/12/24 04:48:06;;;;;;;1999.90;999.90;;;;;;;;;;5048272;28;20233;-77
2023/12/24 04:50:33;;;;;;;1999.90;999.90;;;;;;;;;;5050164;28;20207;-79
2023/12/24 04:53:01;;;;;;;1999.90;999.90;;;;;;;;;;5065454;28;20189;-78
2023/12/24 04:55:30;;;;;;;1999.90;999.90;;;;;;;;;;5067640;28;20675;-80
2023/12/24 04:57:57;;;;;;;1999.90;999.90;;;;;;;;;;5033039;28;20203;-81
2023/12/24 05:00:25;;;;;;;1999.90;999.90;;;;;;;;;;5051027;28;20198;-87
2023/12/24 05:02:52;;;;;;;1999.90;999.90;;;;;;;;;;5049169;28;20536;-82
2023/12/24 05:05:21;;;;;;;1999.90;999.90;;;;;;;;;;5050361;28;20637;-80
2023/12/24 05:07:48;;;;;;;1999.90;999.90;;;;;;;;;;5050069;28;20223;-88
2023/12/24 05:10:16;;;;;;;1999.90;999.90;;;;;;;;;;5050455;28;20226;-86
2023/12/24 05:12:46;;;;;;;1999.90;999.90;;;;;;;;;;5069402;28;20196;-83
2023/12/24 05:15:13;;;;;;;1999.90;999.90;;;;;;;;;;5067884;28;20235;-82
2023/12/24 05:17:40;;;;;;;1999.90;999.90;;;;;;;;;;5062517;28;20205;-85
2023/12/24 05:20:08;;;;;;;1999.90;999.90;;;;;;;;;;5060431;28;20199;-78
2023/12/24 05:22:35;;;;;;;1999.90;999.90;;;;;;;;;;5038277;28;20568;-85
2023/12/24 05:25:03;;;;;;;1999.90;999.90;;;;;;;;;;5033207;28;20213;-76
2023/12/24 05:27:30;;;;;;;1999.90;999.90;;;;;;;;;;5067146;28;20220;-86
2023/12/24 05:29:59;;;;;;;1999.90;999.90;;;;;;;;;;5068391;28;20232;-84
2023/12/24 05:32:26;;;;;;;1999.90;999.90;;;;;;;;;;5068032;28;20189;-85
2023/12/24 05:34:54;;;;;;;1999.90;999.90;;;;;;;;;;5067978;28;20200;-87
2023/12/24 05:37:21;;;;;;;1999.90;999.90;;;;;;;;;;5067525;28;20204;-82
2023/12/24 05:39:48;;;;;;;1999.90;999.90;;;;;;;;;;5049631;28;20188;-82
2023/12/24 05:42:16;;;;;;;1999.90;999.90;;;;;;;;;;5068160;28;20908;-86
2023/12/24 05:44:43;;;;;;;1999.90;999.90;;;;;;;;;;5048909;28;20196;-81
2023/12/24 05:47:12;;;;;;;1999.90;999.90;;;;;;;;;;5077125;28;20207;-82
2023/12/24 05:49:39;;;;;;;1999.90;999.90;;;;;;;;;;5071272;28;20186;-84
2023/12/24 05:52:07;;;;;;;1999.90;999.90;;;;;;;;;;5070414;28;20203;-85
2023/12/24 05:54:34;;;;;;;1999.90;999.90;;;;;;;;;;5050248;28;20204;-83
2023/12/24 05:57:02;;;;;;;1999.90;999.90;;;;;;;;;;5068260;28;20193;-79
2023/12/24 05:59:29;;;;;;;1999.90;999.90;;;;;;;;;;5049737;28;20204;-78
2023/12/24 06:01:56;;;;;;;1999.90;999.90;;;;;;;;;;5068063;28;20195;-86
2023/12/24 06:04:25;;;;;;;1999.90;999.90;;;;;;;;;;5067873;28;20202;-83
2023/12/24 06:06:53;;;;;;;1999.90;999.90;;;;;;;;;;5049659;28;20193;-85
2023/12/24 06:09:20;;;;;;;1999.90;999.90;;;;;;;;;;5068413;28;20723;-81
2023/12/24 06:11:48;;;;;;;1999.90;999.90;;;;;;;;;;5067495;28;20271;-81
2023/12/24 06:14:15;;;;;;;1999.90;999.90;;;;;;;;;;5067209;28;20256;-85
2023/12/24 06:16:42;;;;;;;1999.90;999.90;;;;;;;;;;5068692;28;20202;-87
2023/12/24 06:19:09;;;;;;;1999.90;999.90;;;;;;;;;;5049754;28;20201;-88
2023/12/24 06:21:37;;;;;;;1999.90;999.90;;;;;;;;;;5068916;28;20198;-84
2023/12/24 06:24:05;;;;;;;1999.90;999.90;;;;;;;;;;5068357;28;20570;-90
2023/12/24 06:26:33;;;;;;;1999.90;999.90;;;;;;;;;;5051049;28;20192;-83
2023/12/24 06:29:00;;;;;;;1999.90;999.90;;;;;;;;;;5066524;28;20829;-79
2023/12/24 06:31:27;;;;;;;1999.90;999.90;;;;;;;;;;5067876;28;20192;-82
2023/12/24 06:33:55;;;;;;;1999.90;999.90;;;;;;;;;;5066836;28;20269;-77
2023/12/24 06:36:22;;;;;;;1999.90;999.90;;;;;;;;;;5066937;28;20198;-85
2023/12/24 06:38:51;;;;;;;1999.90;999.90;;;;;;;;;;5052586;28;20201;-82
2023/12/24 06:41:18;;;;;;;1999.90;999.90;;;;;;;;;;5072768;28;20200;-84
2023/12/24 06:43:46;;;;;;;1999.90;999.90;;;;;;;;;;5074215;28;20235;-87
2023/12/24 06:46:13;;;;;;;1999.90;999.90;;;;;;;;;;5058934;28;20217;-78
2023/12/24 06:48:41;;;;;;;1999.90;999.90;;;;;;;;;;5056595;28;20612;-79
2023/12/24 06:51:08;;;;;;;1999.90;999.90;;;;;;;;;;5053579;28;20299;-82
2023/12/24 06:53:36;;;;;;;1999.90;999.90;;;;;;;;;;5071148;28;20196;-81
2023/12/24 06:56:05;;;;;;;1999.90;999.90;;;;;;;;;;5077928;28;20200;-84
2023/12/24 06:58:32;;;;;;;1999.90;999.90;;;;;;;;;;5070840;28;20237;-79
2023/12/24 07:01:00;;;;;;;1999.90;999.90;;;;;;;;;;5078748;28;20193;-75
2023/12/24 07:03:27;;;;;;;1999.90;999.90;;;;;;;;;;5051804;28;20194;-81
2023/12/24 07:05:55;;;;;;;1999.90;999.90;;;;;;;;;;5071338;28;20634;-84
2023/12/24 07:08:23;;;;;;;1999.90;999.90;;;;;;;;;;5035800;28;20681;-78
2023/12/24 07:10:50;;;;;;;1999.90;999.90;;;;;;;;;;5071164;28;20196;-83
2023/12/24 07:13:19;;;;;;;1999.90;999.90;;;;;;;;;;5070265;28;20208;-76
2023/12/24 07:15:46;;;;;;;1999.90;999.90;;;;;;;;;;5051454;28;20233;-78
2023/12/24 07:18:13;;;;;;;1999.90;999.90;;;;;;;;;;5070488;28;20197;-74
2023/12/24 07:20:41;;;;;;;1999.90;999.90;;;;;;;;;;5051692;28;20191;-78
2023/12/24 07:23:08;;;;;;;1999.90;999.90;;;;;;;;;;5070505;28;20194;-79
2023/12/24 07:25:35;;;;;;;1999.90;999.90;;;;;;;;;;5069041;28;20213;-80
2023/12/24 07:28:03;;;;;;;1999.90;999.90;;;;;;;;;;5051360;28;20218;-77
2023/12/24 07:30:31;;;;;;;1999.90;999.90;;;;;;;;;;5069690;28;20209;-77
2023/12/24 07:32:59;;;;;;;1999.90;999.90;;;;;;;;;;5051064;28;20554;-74
2023/12/24 07:35:26;;;;;;;1999.90;999.90;;;;;;;;;;5063108;28;20256;-83
2023/12/24 07:37:54;;;;;;;1999.90;999.90;;;;;;;;;;5061438;28;20200;-83
2023/12/24 07:40:21;;;;;;;1999.90;999.90;;;;;;;;;;5068246;28;20206;-75
2023/12/24 07:42:49;;;;;;;1999.90;999.90;;;;;;;;;;5067270;28;20283;-74
2023/12/24 07:45:16;;;;;;;1999.90;999.90;;;;;;;;;;5068496;28;20553;-73
2023/12/24 07:47:45;;;;;;;1999.90;999.90;;;;;;;;;;5080831;28;20198;-74
2023/12/24 07:50:12;;;;;;;1999.90;999.90;;;;;;;;;;5071350;28;20190;-79
2023/12/24 07:52:39;;;;;;;1999.90;999.90;;;;;;;;;;5065409;28;20909;-82
2023/12/24 07:55:07;;;;;;;1999.90;999.90;;;;;;;;;;5051663;28;20195;-85
2023/12/24 07:57:34;;;;;;;1999.90;999.90;;;;;;;;;;5053180;28;20209;-80
2023/12/24 08:00:02;;;;;;;1999.90;999.90;;;;;;;;;;5052349;28;20200;-86
2023/12/24 08:02:29;;;;;;;1999.90;999.90;;;;;;;;;;5066460;28;20208;-76
2023/12/24 08:04:58;;;;;;;1999.90;999.90;;;;;;;;;;5069298;28;20665;-78
2023/12/24 08:07:25;;;;;;;1999.90;999.90;;;;;;;;;;5069297;28;20197;-81
2023/12/24 08:09:53;;;;;;;1999.90;999.90;;;;;;;;;;5061012;28;20225;-79
2023/12/24 08:12:20;;;;;;;1999.90;999.90;;;;;;;;;;5062332;28;20230;-81
2023/12/24 08:14:48;;;;;;;1999.90;999.90;;;;;;;;;;5049753;28;20229;-80
2023/12/24 08:17:15;;;;;;;1999.90;999.90;;;;;;;;;;5065641;28;20653;-75
2023/12/24 08:19:42;;;;;;;1999.90;999.90;;;;;;;;;;5070213;28;20564;-83
2023/12/24 08:22:12;;;;;;;1999.90;999.90;;;;;;;;;;5049630;28;20660;-78
2023/12/24 08:24:39;;;;;;;1999.90;999.90;;;;;;;;;;5068656;28;20284;-84
2023/12/24 08:27:07;;;;;;;1999.90;999.90;;;;;;;;;;5068922;28;20285;-80
2023/12/24 08:29:34;;;;;;;1999.90;999.90;;;;;;;;;;5068581;28;20286;-82
2023/12/24 08:32:02;;;;;;;1999.90;999.90;;;;;;;;;;5051514;28;20592;-78
2023/12/24 08:34:29;;;;;;;1999.90;999.90;;;;;;;;;;5067664;28;20677;-78
2023/12/24 08:36:56;;;;;;;1999.90;999.90;;;;;;;;;;5050837;28;20194;-82
2023/12/24 08:39:25;;;;;;;1999.90;999.90;;;;;;;;;;5068235;28;20994;-75
2023/12/24 08:41:52;;;;;;;1999.90;999.90;;;;;;;;;;5068911;28;20202;-80
2023/12/24 08:44:20;;;;;;;1999.90;999.90;;;;;;;;;;5049814;28;20212;-80
2023/12/24 08:46:48;;;;;;;1999.90;999.90;;;;;;;;;;5061033;28;20198;-76
2023/12/24 08:49:16;;;;;;;1999.90;999.90;;;;;;;;;;5062305;28;20275;-77
2023/12/24 08:51:44;;;;;;;1999.90;999.90;;;;;;;;;;5067955;28;20190;-82
2023/12/24 08:54:11;;;;;;;1999.90;999.90;;;;;;;;;;5068575;28;20217;-80
2023/12/24 08:56:40;;;;;;;1999.90;999.90;;;;;;;;;;5069660;28;20200;-80
2023/12/24 08:59:09;;;;;;;1999.90;999.90;;;;;;;;;;5074268;28;20205;-80
2023/12/24 09:01:40;;;;;;;1999.90;999.90;;;;;;;;;;5067420;28;20209;-85
2023/12/24 09:04:08;;;;;;;1999.90;999.90;;;;;;;;;;5067065;28;20918;-81
2023/12/24 09:06:35;;;;;;;1999.90;999.90;;;;;;;;;;5068844;28;20201;-81
2023/12/24 09:09:03;;;;;;;1999.90;999.90;;;;;;;;;;5068005;28;20670;-76
2023/12/24 09:11:30;;;;;;;1999.90;999.90;;;;;;;;;;5068028;28;20197;-77
2023/12/24 09:13:59;;;;;;;1999.90;999.90;;;;;;;;;;5066400;28;20196;-76
2023/12/24 09:16:26;;;;;;;1999.90;999.90;;;;;;;;;;5066470;28;20195;-76
2023/12/24 09:18:53;;;;;;;1999.90;999.90;;;;;;;;;;5048969;28;20636;-76
2023/12/24 09:21:21;;;;;;;1999.90;999.90;;;;;;;;;;5065870;28;20198;-77
2023/12/24 09:23:48;;;;;;;1999.90;999.90;;;;;;;;;;5066042;28;20189;-75
2023/12/24 09:26:15;;;;;;;1999.90;999.90;;;;;;;;;;5064705;28;20580;-73
2023/12/24 09:28:43;;;;;;;1999.90;999.90;;;;;;;;;;5066684;28;20218;-76
2023/12/24 09:31:11;;;;;;;1999.90;999.90;;;;;;;;;;5066064;28;20272;-78
2023/12/24 09:33:39;;;;;;;1999.90;999.90;;;;;;;;;;5047706;28;20198;-77
2023/12/24 09:36:07;;;;;;;1999.90;999.90;;;;;;;;;;5066103;28;20380;-76
2023/12/24 09:38:35;;;;;;;1999.90;999.90;;;;;;;;;;5046649;28;20199;-75
2023/12/24 09:41:02;;;;;;;1999.90;999.90;;;;;;;;;;5065808;28;20660;-75
2023/12/24 09:43:30;;;;;;;1999.90;999.90;;;;;;;;;;5065046;28;20248;-75
2023/12/24 09:45:58;;;;;;;1999.90;999.90;;;;;;;;;;5066497;28;20465;-77
2023/12/24 09:48:27;;;;;;;1999.90;999.90;;;;;;;;;;5047203;28;20206;-76
2023/12/24 09:50:54;;;;;;;1999.90;999.90;;;;;;;;;;5066230;28;20195;-79
2023/12/24 09:53:22;;;;;;;1999.90;999.90;;;;;;;;;;5065099;28;20190;-78
2023/12/24 09:55:49;;;;;;;1999.90;999.90;;;;;;;;;;5065583;28;20202;-76
2023/12/24 09:58:17;;;;;;;1999.90;999.90;;;;;;;;;;5030998;28;20577;-75
2023/12/24 10:00:45;;;;;;;1999.90;999.90;;;;;;;;;;5064698;28;20641;-78
2023/12/24 10:03:12;;;;;;;1999.90;999.90;;;;;;;;;;5047524;28;20595;-78
2023/12/24 10:05:54;;;;;;;1999.90;999.90;;;;;;;;;;5046708;28;20201;-86
2023/12/24 10:08:23;;;;;;;1999.90;999.90;;;;;;;;;;5066406;28;20213;-80
2023/12/24 10:10:50;;;;;;;1999.90;999.90;;;;;;;;;;5065014;28;20200;-73
2023/12/24 10:13:20;;;;;;;1999.90;999.90;;;;;;;;;;5064775;28;20312;-75
2023/12/24 10:15:48;;;;;;;1999.90;999.90;;;;;;;;;;5065265;28;20233;-76
2023/12/24 10:18:18;;;;;;;1999.90;999.90;;;;;;;;;;5065114;28;20194;-75
2023/12/24 10:20:46;;;;;;;1999.90;999.90;;;;;;;;;;5065848;28;20186;-74
2023/12/24 10:23:13;;;;;;;1999.90;999.90;;;;;;;;;;5046908;28;20202;-77
2023/12/24 10:25:43;;;;;;;1999.90;999.90;;;;;;;;;;5030406;28;20650;-75
2023/12/24 10:28:10;;;;;;;1999.90;999.90;;;;;;;;;;5045444;28;20187;-74
2023/12/24 10:30:38;;;;;;;1999.90;999.90;;;;;;;;;;5064393;28;20216;-80
2023/12/24 10:33:09;;;;;;;1999.90;999.90;;;;;;;;;;5065616;28;20194;-75
2023/12/24 10:35:36;;;;;;;1999.90;999.90;;;;;;;;;;5058819;28;20190;-76
2023/12/24 10:38:08;;;;;;;1999.90;999.90;;;;;;;;;;5066115;28;20276;-75
2023/12/24 10:40:35;;;;;;;1999.90;999.90;;;;;;;;;;5046104;28;21004;-74
2023/12/24 10:43:04;;;;;;;1999.90;999.90;;;;;;;;;;5030007;28;20211;-76
2023/12/24 10:45:32;;;;;;;1999.90;999.90;;;;;;;;;;5064871;28;20210;-75
2023/12/24 10:47:59;;;;;;;1999.90;999.90;;;;;;;;;;5047112;28;20534;-76
2023/12/24 10:50:26;;;;;;;1999.90;999.90;;;;;;;;;;5046730;28;20710;-74
2023/12/24 10:52:54;;;;;;;1999.90;999.90;;;;;;;;;;5045650;28;20225;-75
2023/12/24 10:55:21;;;;;;;1999.90;999.90;;;;;;;;;;5065166;28;20218;-75
2023/12/24 10:57:54;;;;;;;1999.90;999.90;;;;;;;;;;5047027;28;20557;-76
2023/12/24 11:00:23;;;;;;;1999.90;999.90;;;;;;;;;;5046488;28;20190;-75
2023/12/24 11:02:50;;;;;;;1999.90;999.90;;;;;;;;;;5064471;28;20179;-79
2023/12/24 11:05:36;;;;;;;1999.90;999.90;;;;;;;;;;5064714;28;20207;-76
2023/12/24 11:08:02;;;;;;;1999.90;999.90;;;;;;;;;;5052774;28;20200;-74
2023/12/24 11:10:51;;;;;;;1999.90;999.90;;;;;;;;;;5064210;28;20229;-75
2023/12/24 11:13:37;;;;;;;1999.90;999.90;;;;;;;;;;5026271;28;20208;-75
2023/12/24 11:16:09;;;;;;;1999.90;999.90;;;;;;;;;;5064264;28;20281;-77
2023/12/24 11:18:44;;;;;;;1999.90;999.90;;;;;;;;;;5029923;28;20202;-79
2023/12/24 11:21:12;;;;;;;1999.90;999.90;;;;;;;;;;5065981;28;20187;-80
2023/12/24 11:23:40;;;;;;;1999.90;999.90;;;;;;;;;;5064472;28;20190;-79
2023/12/24 11:26:30;;;;;;;1999.90;999.90;;;;;;;;;;5067670;28;20210;-75
2023/12/24 11:28:57;;;;;;;1999.90;999.90;;;;;;;;;;5050237;28;20203;-75
2023/12/24 11:31:26;;;;;;;1999.90;999.90;;;;;;;;;;5050060;28;20228;-76
2023/12/24 11:33:55;;;;;;;1999.90;999.90;;;;;;;;;;5050007;28;20843;-75
2023/12/24 11:36:23;;;;;;;1999.90;999.90;;;;;;;;;;5050042;28;20200;-76
2023/12/24 11:38:55;;;;;;;1999.90;999.90;;;;;;;;;;5067275;28;20566;-76
2023/12/24 11:41:23;;;;;;;1999.90;999.90;;;;;;;;;;5054038;28;20194;-78
2023/12/24 11:43:54;;;;;;;1999.90;999.90;;;;;;;;;;5045056;28;20231;-77
2023/12/24 11:46:22;;;;;;;1999.90;999.90;;;;;;;;;;5060453;28;20209;-73
2023/12/24 11:48:51;;;;;;;1999.90;999.90;;;;;;;;;;5066598;28;20793;-76
2023/12/24 11:51:23;;;;;;;1999.90;999.90;;;;;;;;;;5054173;28;20643;-73
2023/12/24 11:53:51;;;;;;;1999.90;999.90;;;;;;;;;;5060840;28;20382;-74
2023/12/24 11:56:20;;;;;;;1999.90;999.90;;;;;;;;;;5066305;28;20179;-75
2023/12/24 11:58:57;;;;;;;1999.90;999.90;;;;;;;;;;5067252;28;20225;-75
2023/12/24 12:01:25;;;;;;;1999.90;999.90;;;;;;;;;;5056625;28;20195;-75
2023/12/24 12:03:58;;;;;;;1999.90;999.90;;;;;;;;;;5044592;28;20206;-73
2023/12/24 12:06:26;;;;;;;1999.90;999.90;;;;;;;;;;5059694;28;20189;-72
2023/12/24 12:08:54;;;;;;;1999.90;999.90;;;;;;;;;;5057722;28;20205;-72
2023/12/24 12:11:22;;;;;;;1999.90;999.90;;;;;;;;;;5061727;28;20210;-73
2023/12/24 12:13:49;;;;;;;1999.90;999.90;;;;;;;;;;5047256;28;20194;-75
2023/12/24 12:16:16;;;;;;;1999.90;999.90;;;;;;;;;;5067119;28;20198;-69
2023/12/24 12:18:44;;;;;;;1999.90;999.90;;;;;;;;;;5066230;28;20209;-72
2023/12/24 12:21:13;;;;;;;1999.90;999.90;;;;;;;;;;5067208;28;20205;-73
2023/12/24 12:23:41;;;;;;;1999.90;999.90;;;;;;;;;;5066206;28;21037;-74
2023/12/24 12:26:09;;;;;;;1999.90;999.90;;;;;;;;;;5050639;28;20199;-73
2023/12/24 12:28:37;;;;;;;1999.90;999.90;;;;;;;;;;5067995;28;20213;-75
2023/12/24 12:31:04;;;;;;;1999.90;999.90;;;;;;;;;;5067398;28;20221;-73
2023/12/24 12:33:32;;;;;;;1999.90;999.90;;;;;;;;;;5066046;28;20187;-71
2023/12/24 12:36:02;;;;;;;1999.90;999.90;;;;;;;;;;5066612;28;20248;-72
2023/12/24 12:38:31;;;;;;;1999.90;999.90;;;;;;;;;;5066579;28;20208;-71
2023/12/24 12:40:58;;;;;;;1999.90;999.90;;;;;;;;;;5047113;28;20213;-72
2023/12/24 12:43:25;;;;;;;1999.90;999.90;;;;;;;;;;5059529;28;20190;-70
2023/12/24 12:45:53;;;;;;;1999.90;999.90;;;;;;;;;;5073398;28;20669;-72
2023/12/24 12:48:20;;;;;;;1999.90;999.90;;;;;;;;;;5073191;28;20200;-71
2023/12/24 12:50:48;;;;;;;1999.90;999.90;;;;;;;;;;5054806;28;20290;-71
2023/12/24 12:53:24;;;;;;;1999.90;999.90;;;;;;;;;;5066628;28;20203;-71
2023/12/24 12:55:52;;;;;;;1999.90;999.90;;;;;;;;;;5066300;28;20222;-72
2023/12/24 12:58:20;;;;;;;1999.90;999.90;;;;;;;;;;5067610;28;20192;-74
2023/12/24 13:00:47;;;;;;;1999.90;999.90;;;;;;;;;;5066841;28;20207;-73
2023/12/24 13:03:14;;;;;;;1999.90;999.90;;;;;;;;;;5056110;28;20358;-72
2023/12/24 13:05:42;;;;;;;1999.90;999.90;;;;;;;;;;5048831;28;20206;-72
2023/12/24 13:08:16;;;;;;;1999.90;999.90;;;;;;;;;;5048641;28;20575;-71
2023/12/24 13:10:43;;;;;;;1999.90;999.90;;;;;;;;;;5066139;28;20242;-73
2023/12/24 13:13:13;;;;;;;1999.90;999.90;;;;;;;;;;5066865;28;20256;-72
2023/12/24 13:15:41;;;;;;;1999.90;999.90;;;;;;;;;;5047708;28;20226;-73
2023/12/24 13:18:15;;;;;;;1999.90;999.90;;;;;;;;;;5066849;28;20202;-71
2023/12/24 13:20:43;;;;;;;1999.90;999.90;;;;;;;;;;5065481;28;20202;-73
2023/12/24 13:23:11;;;;;;;1999.90;999.90;;;;;;;;;;5048736;28;20703;-72
2023/12/24 13:25:41;;;;;;;1999.90;999.90;;;;;;;;;;5066251;28;20641;-71
2023/12/24 13:28:08;;;;;;;1999.90;999.90;;;;;;;;;;5066290;28;20202;-72
2023/12/24 13:30:37;;;;;;;1999.90;999.90;;;;;;;;;;5066166;28;20223;-72
2023/12/24 13:33:05;;;;;;;1999.90;999.90;;;;;;;;;;5065539;28;20630;-72
2023/12/24 13:35:35;;;;;;;1999.90;999.90;;;;;;;;;;5039145;28;20201;-73
2023/12/24 13:38:03;;;;;;;1999.90;999.90;;;;;;;;;;5059973;28;20221;-73
2023/12/24 13:40:31;;;;;;;1999.90;999.90;;;;;;;;;;5066843;28;20727;-74
2023/12/24 13:42:58;;;;;;;1999.90;999.90;;;;;;;;;;5055947;28;20208;-72
2023/12/24 13:45:25;;;;;;;1999.90;999.90;;;;;;;;;;5055355;28;20663;-73
2023/12/24 13:47:54;;;;;;;1999.90;999.90;;;;;;;;;;5065321;28;20187;-72